createdAt,value
2022-11-22T00:00:01.990Z,11.70
2022-11-22T00:02:07.770Z,11.70
2022-11-22T00:04:09.519Z,11.70
2022-11-22T00:06:11.215Z,11.70
2022-11-22T00:08:12.907Z,11.70
2022-11-22T00:10:14.837Z,11.80
2022-11-22T00:12:16.558Z,11.70
2022-11-22T00:14:18.180Z,11.70
2022-11-22T00:16:19.858Z,11.80
2022-11-22T00:18:21.459Z,11.80
2022-11-22T00:20:23.207Z,11.80
2022-11-22T00:22:24.943Z,11.80
2022-11-22T00:24:26.622Z,11.80
2022-11-22T00:26:28.276Z,11.80
2022-11-22T00:28:30.103Z,11.70
2022-11-22T00:30:31.750Z,11.80
2022-11-22T00:32:33.712Z,11.70
2022-11-22T00:34:35.406Z,11.80
2022-11-22T00:36:37.067Z,11.70
2022-11-22T00:38:41.702Z,11.80
2022-11-22T00:40:43.422Z,11.80
2022-11-22T00:42:45.135Z,11.80
2022-11-22T00:44:46.856Z,11.80
2022-11-22T00:46:48.511Z,11.80
2022-11-22T00:48:50.248Z,11.80
2022-11-22T00:50:51.923Z,11.70
2022-11-22T00:52:53.620Z,11.70
2022-11-22T00:54:55.403Z,11.70
2022-11-22T00:56:57.150Z,11.70
2022-11-22T00:58:58.900Z,11.70
2022-11-22T01:01:00.636Z,11.70
2022-11-22T01:03:02.363Z,11.70
2022-11-22T01:05:04.272Z,11.70
2022-11-22T01:07:05.994Z,11.70
2022-11-22T01:09:07.709Z,11.80
2022-11-22T01:11:09.481Z,11.70
2022-11-22T01:13:11.629Z,11.80
2022-11-22T01:15:13.356Z,11.80
2022-11-22T01:17:15.029Z,11.70
2022-11-22T01:19:16.689Z,11.80
2022-11-22T01:21:18.382Z,11.80
2022-11-22T01:23:20.193Z,11.80
2022-11-22T01:25:21.893Z,11.80
2022-11-22T01:27:23.840Z,11.80
2022-11-22T01:29:25.598Z,11.80
2022-11-22T01:31:27.273Z,11.80
2022-11-22T01:33:29.363Z,11.80
2022-11-22T01:35:30.971Z,11.80
2022-11-22T01:37:32.622Z,11.80
2022-11-22T01:39:34.395Z,11.80
2022-11-22T01:41:36.054Z,11.80
2022-11-22T01:43:37.708Z,11.80
2022-11-22T01:45:41.298Z,11.80
2022-11-22T01:47:43.013Z,11.80
2022-11-22T01:49:53.873Z,11.80
2022-11-22T01:51:58.344Z,11.80
2022-11-22T01:54:02.700Z,11.80
2022-11-22T01:56:05.672Z,11.80
2022-11-22T01:58:08.267Z,11.80
2022-11-22T02:00:11.327Z,11.80
2022-11-22T02:02:19.546Z,11.80
2022-11-22T02:04:22.131Z,11.80
2022-11-22T02:06:25.935Z,11.80
2022-11-22T02:08:30.615Z,11.80
2022-11-22T02:10:35.546Z,11.80
2022-11-22T02:12:37.294Z,11.80
2022-11-22T02:14:40.185Z,11.80
2022-11-22T02:16:42.280Z,11.80
2022-11-22T02:18:43.921Z,11.80
2022-11-22T02:20:45.831Z,11.80
2022-11-22T02:22:50.241Z,11.90
2022-11-22T02:25:17.927Z,11.90
2022-11-22T02:27:19.565Z,11.80
2022-11-22T02:29:21.462Z,11.80
2022-11-22T02:31:40.186Z,11.90
2022-11-22T02:33:41.808Z,11.80
2022-11-22T02:35:44.354Z,11.80
2022-11-22T02:37:47.181Z,11.80
2022-11-22T02:39:50.254Z,11.80
2022-11-22T02:41:52.049Z,11.80
2022-11-22T02:43:53.833Z,11.80
2022-11-22T02:45:55.837Z,11.80
2022-11-22T02:48:07.655Z,11.80
2022-11-22T02:50:09.384Z,11.80
2022-11-22T02:52:11.060Z,11.80
2022-11-22T02:54:12.741Z,11.80
2022-11-22T02:56:14.539Z,11.80
2022-11-22T02:58:16.204Z,11.80
2022-11-22T03:00:20.689Z,11.80
2022-11-22T03:02:22.373Z,11.80
2022-11-22T03:04:26.799Z,11.80
2022-11-22T03:06:28.502Z,11.80
2022-11-22T03:08:30.171Z,11.80
2022-11-22T03:10:31.881Z,11.90
2022-11-22T03:12:33.679Z,11.80
2022-11-22T03:14:35.362Z,11.90
2022-11-22T03:16:37.015Z,11.90
2022-11-22T03:18:38.718Z,11.80
2022-11-22T03:20:40.500Z,11.80
2022-11-22T03:22:42.194Z,11.80
2022-11-22T03:24:43.892Z,11.80
2022-11-22T03:26:49.547Z,11.80
2022-11-22T03:28:54.022Z,11.90
2022-11-22T03:30:55.692Z,11.90
2022-11-22T03:32:57.339Z,11.90
2022-11-22T03:34:58.977Z,11.90
2022-11-22T03:37:00.578Z,11.90
2022-11-22T03:39:02.196Z,11.90
2022-11-22T03:41:03.915Z,11.90
2022-11-22T03:43:05.591Z,11.90
2022-11-22T03:45:07.405Z,11.90
2022-11-22T03:47:09.027Z,11.90
2022-11-22T03:49:10.747Z,11.90
2022-11-22T03:51:12.412Z,11.90
2022-11-22T03:53:14.037Z,11.90
2022-11-22T03:55:15.826Z,11.90
2022-11-22T03:57:17.503Z,11.90
2022-11-22T03:59:19.225Z,11.90
2022-11-22T04:01:20.909Z,11.90
2022-11-22T04:03:22.905Z,11.90
2022-11-22T04:05:24.538Z,11.90
2022-11-22T04:07:26.212Z,11.90
2022-11-22T04:09:28.067Z,11.90
2022-11-22T04:11:29.881Z,11.90
2022-11-22T04:13:50.002Z,11.90
2022-11-22T04:15:51.680Z,11.90
2022-11-22T04:17:53.542Z,11.90
2022-11-22T04:20:18.078Z,11.90
2022-11-22T04:22:19.771Z,11.90
2022-11-22T04:24:40.106Z,11.90
2022-11-22T04:26:41.806Z,11.90
2022-11-22T04:29:09.701Z,11.90
2022-11-22T04:31:23.598Z,11.90
2022-11-22T04:33:25.665Z,11.90
2022-11-22T04:35:27.273Z,11.90
2022-11-22T04:37:29.001Z,11.90
2022-11-22T04:39:30.900Z,11.90
2022-11-22T04:41:32.713Z,11.90
2022-11-22T04:43:53.109Z,11.90
2022-11-22T04:45:54.807Z,12.00
2022-11-22T04:47:59.489Z,11.90
2022-11-22T04:50:01.929Z,11.90
2022-11-22T04:52:22.671Z,11.90
2022-11-22T04:54:24.301Z,11.90
2022-11-22T04:56:25.899Z,11.90
2022-11-22T04:58:27.522Z,11.90
2022-11-22T05:00:30.080Z,11.90
2022-11-22T05:02:31.670Z,11.90
2022-11-22T05:04:33.418Z,11.90
2022-11-22T05:06:36.217Z,11.90
2022-11-22T05:08:37.832Z,11.90
2022-11-22T05:10:58.252Z,11.90
2022-11-22T05:12:59.846Z,11.90
2022-11-22T05:15:01.480Z,11.90
2022-11-22T05:17:03.112Z,11.90
2022-11-22T05:19:05.010Z,11.90
2022-11-22T05:21:07.602Z,11.90
2022-11-22T05:23:27.894Z,11.90
2022-11-22T05:25:29.560Z,11.80
2022-11-22T05:27:31.146Z,11.90
2022-11-22T05:29:32.819Z,11.80
2022-11-22T05:31:35.420Z,11.90
2022-11-22T05:33:37.996Z,11.80
2022-11-22T05:35:39.658Z,11.80
2022-11-22T05:37:41.253Z,11.90
2022-11-22T05:39:42.854Z,11.90
2022-11-22T05:41:55.766Z,11.90
2022-11-22T05:43:57.851Z,11.80
2022-11-22T05:46:26.336Z,11.90
2022-11-22T05:48:28.022Z,11.80
2022-11-22T05:50:29.649Z,11.90
2022-11-22T05:52:31.401Z,11.80
2022-11-22T05:54:33.099Z,11.80
2022-11-22T05:56:34.742Z,11.80
2022-11-22T05:58:36.684Z,11.80
2022-11-22T06:00:38.369Z,11.80
2022-11-22T06:02:40.102Z,11.80
2022-11-22T06:04:41.765Z,11.80
2022-11-22T06:06:43.398Z,11.80
2022-11-22T06:08:47.516Z,11.80
2022-11-22T06:10:49.160Z,11.80
2022-11-22T06:12:50.801Z,11.80
2022-11-22T06:14:52.463Z,11.80
2022-11-22T06:16:54.123Z,11.80
2022-11-22T06:18:56.156Z,11.80
2022-11-22T06:20:58.897Z,11.80
2022-11-22T06:23:00.462Z,11.80
2022-11-22T06:25:02.146Z,11.90
2022-11-22T06:27:03.853Z,11.90
2022-11-22T06:29:05.509Z,11.80
2022-11-22T06:31:16.579Z,11.90
2022-11-22T06:33:18.375Z,11.90
2022-11-22T06:35:20.008Z,11.80
2022-11-22T06:37:21.772Z,11.90
2022-11-22T06:39:23.455Z,11.90
2022-11-22T06:41:26.159Z,11.90
2022-11-22T06:43:31.482Z,11.80
2022-11-22T06:45:33.071Z,11.80
2022-11-22T06:47:34.669Z,11.80
2022-11-22T06:49:36.312Z,11.80
2022-11-22T06:51:38.001Z,11.80
2022-11-22T06:53:47.384Z,11.80
2022-11-22T06:55:51.312Z,11.80
2022-11-22T06:57:54.199Z,11.80
2022-11-22T06:59:55.801Z,11.80
2022-11-22T07:02:02.896Z,11.80
2022-11-22T07:04:07.857Z,11.80
2022-11-22T07:06:10.535Z,11.80
2022-11-22T07:08:13.997Z,11.80
2022-11-22T07:10:16.021Z,11.80
2022-11-22T07:12:17.657Z,11.80
2022-11-22T07:14:19.371Z,11.70
2022-11-22T07:16:21.418Z,11.70
2022-11-22T07:18:23.538Z,11.70
2022-11-22T07:20:25.265Z,11.70
2022-11-22T07:22:26.987Z,11.60
2022-11-22T07:24:30.181Z,11.60
2022-11-22T07:26:31.813Z,11.60
2022-11-22T07:28:33.542Z,11.60
2022-11-22T07:30:38.608Z,11.60
2022-11-22T07:32:47.050Z,11.60
2022-11-22T07:34:48.704Z,11.60
2022-11-22T07:36:54.347Z,11.60
2022-11-22T07:38:59.075Z,11.60
2022-11-22T07:41:01.155Z,11.60
2022-11-22T07:43:02.761Z,11.60
2022-11-22T07:45:04.810Z,11.60
2022-11-22T07:47:06.556Z,11.60
2022-11-22T07:49:09.095Z,11.60
2022-11-22T07:51:10.728Z,11.60
2022-11-22T07:53:12.553Z,11.60
2022-11-22T07:55:14.535Z,11.60
2022-11-22T07:57:16.176Z,11.60
2022-11-22T07:59:18.807Z,11.60
2022-11-22T08:01:21.511Z,11.60
2022-11-22T08:03:28.634Z,11.60
2022-11-22T08:05:30.693Z,11.60
2022-11-22T08:07:32.441Z,11.60
2022-11-22T08:09:34.168Z,11.60
2022-11-22T08:11:37.030Z,11.60
2022-11-22T08:13:38.776Z,11.60
2022-11-22T08:15:40.478Z,11.60
2022-11-22T08:17:42.178Z,11.60
2022-11-22T08:19:43.917Z,11.60
2022-11-22T08:21:46.378Z,11.60
2022-11-22T08:23:48.468Z,11.60
2022-11-22T08:25:50.112Z,11.60
2022-11-22T08:27:51.751Z,11.60
2022-11-22T08:29:53.461Z,11.60
2022-11-22T08:31:55.177Z,11.60
2022-11-22T08:33:56.875Z,11.60
2022-11-22T08:35:58.767Z,11.60
2022-11-22T08:38:00.539Z,11.60
2022-11-22T08:40:02.301Z,11.60
2022-11-22T08:42:03.957Z,11.70
2022-11-22T08:44:05.699Z,11.60
2022-11-22T08:46:07.474Z,11.60
2022-11-22T08:48:09.261Z,11.70
2022-11-22T08:50:11.153Z,11.70
2022-11-22T08:52:13.035Z,11.70
2022-11-22T08:54:15.205Z,11.70
2022-11-22T08:56:16.893Z,11.70
2022-11-22T08:58:18.898Z,11.70
2022-11-22T09:00:20.625Z,11.70
2022-11-22T09:02:22.448Z,11.70
2022-11-22T09:04:24.168Z,11.70
2022-11-22T09:08:55.315Z,11.80
2022-11-22T09:11:06.356Z,11.70
2022-11-22T09:13:08.116Z,11.80
2022-11-22T09:15:10.124Z,11.80
2022-11-22T09:17:17.308Z,11.80
2022-11-22T09:19:19.622Z,11.80
2022-11-22T09:21:21.385Z,11.80
2022-11-22T09:23:23.052Z,11.80
2022-11-22T09:25:24.732Z,11.80
2022-11-22T09:27:26.743Z,11.80
2022-11-22T09:29:28.761Z,11.80
2022-11-22T09:31:30.915Z,11.80
2022-11-22T09:33:33.839Z,11.80
2022-11-22T09:35:35.547Z,11.80
2022-11-22T09:37:37.252Z,11.80
2022-11-22T09:39:46.758Z,11.80
2022-11-22T09:42:10.473Z,11.80
2022-11-22T09:44:47.791Z,11.90
2022-11-22T09:46:52.775Z,11.90
2022-11-22T09:49:09.557Z,11.90
2022-11-22T09:51:19.362Z,11.90
2022-11-22T09:53:24.891Z,11.90
2022-11-22T09:55:35.036Z,11.90
2022-11-22T09:57:47.811Z,11.90
2022-11-22T09:59:51.645Z,11.90
2022-11-22T10:01:58.749Z,11.90
2022-11-22T10:04:12.930Z,11.90
2022-11-22T10:06:37.673Z,11.90
2022-11-22T10:08:42.382Z,11.90
2022-11-22T10:10:44.166Z,12.00
2022-11-22T10:12:52.902Z,12.00
2022-11-22T10:14:57.675Z,12.00
2022-11-22T10:17:02.114Z,12.00
2022-11-22T10:19:22.609Z,12.00
2022-11-22T10:21:24.370Z,12.10
2022-11-22T10:23:26.843Z,12.10
2022-11-22T10:25:38.197Z,12.10
2022-11-22T10:27:41.090Z,12.10
2022-11-22T10:29:54.005Z,12.10
2022-11-22T10:32:05.187Z,12.10
2022-11-22T10:34:25.835Z,12.10
2022-11-22T10:36:45.968Z,12.20
2022-11-22T10:38:53.396Z,12.20
2022-11-22T10:41:07.372Z,12.20
2022-11-22T10:43:18.199Z,12.20
2022-11-22T10:45:19.861Z,12.30
2022-11-22T10:47:33.020Z,12.30
2022-11-22T10:49:35.996Z,12.30
2022-11-22T10:51:47.492Z,12.30
2022-11-22T10:54:03.294Z,12.40
2022-11-22T10:56:11.691Z,12.40
2022-11-22T10:58:13.359Z,12.40
2022-11-22T11:00:17.563Z,12.40
2022-11-22T11:02:37.594Z,12.40
2022-11-22T11:04:40.794Z,12.40
2022-11-22T11:07:11.598Z,12.40
2022-11-22T11:11:42.088Z,12.40
2022-11-22T11:13:46.616Z,12.50
2022-11-22T11:15:55.694Z,12.40
2022-11-22T11:18:02.747Z,12.40
2022-11-22T11:20:09.881Z,12.50
2022-11-22T11:22:15.525Z,12.40
2022-11-22T11:24:17.508Z,12.50
2022-11-22T11:26:30.330Z,12.50
2022-11-22T11:28:31.991Z,12.50
2022-11-22T11:30:43.940Z,12.50
2022-11-22T11:32:52.958Z,12.60
2022-11-22T11:35:01.543Z,12.70
2022-11-22T11:37:04.313Z,12.70
2022-11-22T11:39:19.112Z,12.70
2022-11-22T11:41:22.932Z,12.80
2022-11-22T11:43:25.325Z,12.80
2022-11-22T11:45:29.071Z,12.80
2022-11-22T11:47:34.437Z,12.80
2022-11-22T11:49:36.111Z,12.80
2022-11-22T11:51:38.861Z,12.90
2022-11-22T11:53:41.623Z,12.90
2022-11-22T11:55:43.290Z,12.90
2022-11-22T11:57:45.402Z,12.90
2022-11-22T11:59:48.488Z,12.90
2022-11-22T12:01:52.446Z,12.90
2022-11-22T12:04:02.047Z,13.00
2022-11-22T12:06:14.056Z,13.00
2022-11-22T12:08:31.348Z,13.00
2022-11-22T12:10:51.856Z,13.00
2022-11-22T12:13:02.912Z,13.10
2022-11-22T12:15:12.599Z,13.10
2022-11-22T12:17:21.069Z,13.10
2022-11-22T12:19:41.397Z,13.10
2022-11-22T12:21:43.099Z,13.10
2022-11-22T12:23:53.332Z,13.20
2022-11-22T12:25:55.953Z,13.20
2022-11-22T12:27:57.768Z,13.20
2022-11-22T12:29:59.527Z,13.20
2022-11-22T12:32:18.872Z,13.20
2022-11-22T12:34:23.610Z,13.20
2022-11-22T12:36:32.701Z,13.20
2022-11-22T12:38:38.578Z,13.20
2022-11-22T12:40:42.089Z,13.20
2022-11-22T12:42:47.412Z,13.20
2022-11-22T12:44:54.294Z,13.20
2022-11-22T12:47:01.973Z,13.30
2022-11-22T12:49:12.822Z,13.30
2022-11-22T12:51:24.458Z,13.20
2022-11-22T12:53:31.083Z,13.30
2022-11-22T12:55:54.206Z,13.30
2022-11-22T12:58:08.013Z,13.30
2022-11-22T13:00:14.799Z,13.30
2022-11-22T13:02:34.884Z,13.30
2022-11-22T13:04:48.520Z,13.30
2022-11-22T13:07:22.657Z,13.30
2022-11-22T13:09:35.114Z,13.30
2022-11-22T13:11:46.515Z,13.30
2022-11-22T13:13:50.840Z,13.30
2022-11-22T13:15:52.905Z,13.30
2022-11-22T13:17:54.739Z,13.30
2022-11-22T13:20:05.485Z,13.40
2022-11-22T13:22:21.694Z,13.40
2022-11-22T13:24:24.015Z,13.40
2022-11-22T13:26:34.930Z,13.40
2022-11-22T13:28:38.312Z,13.50
2022-11-22T13:30:40.266Z,13.50
2022-11-22T13:32:42.909Z,13.50
2022-11-22T13:35:02.643Z,13.50
2022-11-22T13:37:15.303Z,13.50
2022-11-22T13:39:20.285Z,13.50
2022-11-22T13:41:33.826Z,13.50
2022-11-22T13:43:49.417Z,13.50
2022-11-22T13:45:55.505Z,13.50
2022-11-22T13:47:57.162Z,13.50
2022-11-22T13:49:58.939Z,13.50
2022-11-22T13:52:01.578Z,13.50
2022-11-22T13:54:26.371Z,13.50
2022-11-22T13:56:28.126Z,13.50
2022-11-22T13:58:49.039Z,13.50
2022-11-22T14:00:56.081Z,13.50
2022-11-22T14:03:13.131Z,13.50
2022-11-22T14:05:26.801Z,13.40
2022-11-22T14:07:36.602Z,13.40
2022-11-22T14:09:53.372Z,13.40
2022-11-22T14:11:57.583Z,13.40
2022-11-22T14:14:03.370Z,13.30
2022-11-22T14:16:40.635Z,13.30
2022-11-22T14:18:51.603Z,13.30
2022-11-22T14:21:04.616Z,13.30
2022-11-22T14:23:15.693Z,13.30
2022-11-22T14:25:17.633Z,13.30
2022-11-22T14:27:36.403Z,13.30
2022-11-22T14:29:54.101Z,13.20
2022-11-22T14:32:03.827Z,13.20
2022-11-22T14:34:14.499Z,13.20
2022-11-22T14:36:16.326Z,13.20
2022-11-22T14:38:28.490Z,13.20
2022-11-22T14:40:30.538Z,13.20
2022-11-22T14:42:35.239Z,13.20
2022-11-22T14:44:36.952Z,13.10
2022-11-22T14:46:56.254Z,13.10
2022-11-22T14:49:00.664Z,13.10
2022-11-22T14:51:09.332Z,13.10
2022-11-22T14:53:26.200Z,13.00
2022-11-22T14:55:32.147Z,13.00
2022-11-22T14:57:34.389Z,13.00
2022-11-22T14:59:55.123Z,13.00
2022-11-22T15:02:15.740Z,12.90
2022-11-22T15:09:10.826Z,12.90
2022-11-22T15:09:16.790Z,12.90
2022-11-22T15:09:33.327Z,12.90
2022-11-22T15:11:47.922Z,12.90
2022-11-22T15:14:28.011Z,12.80
2022-11-22T15:57:27.925Z,12.70
2022-11-22T15:59:35.644Z,12.70
2022-11-22T16:01:38.824Z,12.70
2022-11-22T16:03:42.942Z,12.60
2022-11-22T16:06:09.766Z,12.60
2022-11-22T16:08:15.037Z,12.60
2022-11-22T16:10:16.807Z,12.60
2022-11-22T16:12:36.211Z,12.60
2022-11-22T16:14:37.931Z,12.60
2022-11-22T16:16:39.622Z,12.60
2022-11-22T16:18:44.645Z,12.50
2022-11-22T16:21:18.582Z,12.50
2022-11-22T16:23:24.899Z,12.50
2022-11-22T16:25:31.126Z,12.50
2022-11-22T16:27:32.983Z,12.50
2022-11-22T16:29:37.009Z,12.40
2022-11-22T16:31:40.068Z,12.50
2022-11-22T16:33:41.836Z,12.40
2022-11-22T16:35:43.690Z,12.40
2022-11-22T16:37:48.192Z,12.40
2022-11-22T16:39:50.177Z,12.40
2022-11-22T16:41:52.733Z,12.40
2022-11-22T16:44:01.618Z,12.30
2022-11-22T16:46:03.490Z,12.30
2022-11-22T16:48:30.943Z,12.30
2022-11-22T16:50:33.909Z,12.30
2022-11-22T16:52:36.696Z,12.20
2022-11-22T16:54:38.763Z,12.20
2022-11-22T16:56:40.649Z,12.20
2022-11-22T16:58:42.675Z,12.20
2022-11-22T17:00:45.421Z,12.20
2022-11-22T17:02:47.171Z,12.10
2022-11-22T17:04:49.181Z,12.10
2022-11-22T17:06:51.426Z,12.10
2022-11-22T17:08:54.436Z,12.10
2022-11-22T17:10:56.302Z,12.10
2022-11-22T17:12:58.588Z,12.00
2022-11-22T17:15:00.382Z,12.00
2022-11-22T17:17:03.456Z,12.00
2022-11-22T17:19:05.563Z,12.00
2022-11-22T17:21:26.664Z,12.00
2022-11-22T17:23:36.545Z,12.00
2022-11-22T17:25:38.285Z,11.90
2022-11-22T17:27:40.706Z,11.90
2022-11-22T17:29:50.416Z,11.90
2022-11-22T17:31:52.851Z,11.90
2022-11-22T17:33:56.998Z,11.90
2022-11-22T17:35:58.888Z,11.80
2022-11-22T17:38:00.748Z,11.80
2022-11-22T17:40:02.545Z,11.80
2022-11-22T17:42:04.385Z,11.80
2022-11-22T17:44:06.483Z,11.80
2022-11-22T17:46:08.280Z,11.70
2022-11-22T17:48:12.973Z,11.70
2022-11-22T17:50:15.095Z,11.70
2022-11-22T17:52:19.191Z,11.70
2022-11-22T17:54:21.586Z,11.70
2022-11-22T17:56:23.769Z,11.70
2022-11-22T17:58:25.654Z,11.70
2022-11-22T18:00:30.255Z,11.70
2022-11-22T18:02:32.928Z,11.70
2022-11-22T18:04:34.930Z,11.70
2022-11-22T18:06:36.784Z,11.70
2022-11-22T18:08:43.871Z,11.80
2022-11-22T18:10:51.681Z,11.80
2022-11-22T18:13:19.835Z,11.80
2022-11-22T18:15:15.400Z,11.80
2022-11-22T18:17:17.564Z,11.80
2022-11-22T18:19:19.649Z,11.90
2022-11-22T18:21:22.114Z,11.90
2022-11-22T18:23:24.862Z,11.90
2022-11-22T18:25:26.760Z,11.90
2022-11-22T18:27:28.733Z,11.90
2022-11-22T18:29:45.868Z,12.00
2022-11-22T18:31:52.267Z,12.00
2022-11-22T18:33:55.251Z,11.90
2022-11-22T18:36:11.994Z,11.90
2022-11-22T18:38:29.214Z,12.00
2022-11-22T18:40:31.151Z,12.00
2022-11-22T18:42:32.972Z,12.00
2022-11-22T18:44:34.935Z,12.00
2022-11-22T18:46:36.834Z,12.00
2022-11-22T18:48:38.838Z,12.10
2022-11-22T18:50:40.720Z,12.10
2022-11-22T18:52:58.125Z,12.10
2022-11-22T18:55:08.219Z,12.10
2022-11-22T18:57:10.059Z,12.10
2022-11-22T18:59:14.927Z,12.10
2022-11-22T19:01:17.855Z,12.10
2022-11-22T19:03:22.779Z,12.10
2022-11-22T19:05:37.751Z,12.10
2022-11-22T19:07:40.797Z,12.10
2022-11-22T19:09:43.569Z,12.20
2022-11-22T19:11:52.605Z,12.10
2022-11-22T19:13:58.105Z,12.20
2022-11-22T19:16:05.440Z,12.20
2022-11-22T19:18:10.637Z,12.20
2022-11-22T19:20:32.169Z,12.20
2022-11-22T19:22:34.681Z,12.20
2022-11-22T19:24:36.510Z,12.20
2022-11-22T19:26:38.513Z,12.20
2022-11-22T19:28:50.257Z,12.20
2022-11-22T19:31:17.326Z,12.20
2022-11-22T19:33:22.931Z,12.20
2022-11-22T19:35:24.943Z,12.20
2022-11-22T19:37:26.828Z,12.20
2022-11-22T19:39:28.920Z,12.20
2022-11-22T19:41:31.153Z,12.20
2022-11-22T19:43:33.246Z,12.20
2022-11-22T19:45:35.385Z,12.20
2022-11-22T19:47:37.246Z,12.20
2022-11-22T19:49:39.128Z,12.20
2022-11-22T19:51:40.991Z,12.20
2022-11-22T19:53:42.968Z,12.20
2022-11-22T19:55:45.657Z,12.20
2022-11-22T19:57:47.780Z,12.10
2022-11-22T19:59:49.581Z,12.10
2022-11-22T20:01:51.489Z,12.10
2022-11-22T20:03:57.679Z,12.10
2022-11-22T20:05:59.896Z,12.10
2022-11-22T20:08:01.985Z,12.10
2022-11-22T20:10:04.280Z,12.10
2022-11-22T20:12:06.187Z,12.10
2022-11-22T20:14:09.376Z,12.10
2022-11-22T20:16:15.645Z,12.10
2022-11-22T20:18:17.605Z,12.00
2022-11-22T20:20:19.649Z,12.00
2022-11-22T20:22:31.703Z,12.10
2022-11-22T20:24:44.928Z,12.10
2022-11-22T20:27:04.126Z,12.10
2022-11-22T20:29:24.767Z,12.10
2022-11-22T20:31:41.760Z,12.10
2022-11-22T20:33:58.309Z,12.10
2022-11-22T20:36:02.622Z,12.10
2022-11-22T20:38:04.642Z,12.10
2022-11-22T20:40:17.858Z,12.10
2022-11-22T20:42:34.786Z,12.10
2022-11-22T20:44:42.817Z,12.10
2022-11-22T20:46:48.108Z,12.10
2022-11-22T20:49:09.841Z,12.10
2022-11-22T20:52:46.417Z,12.10
2022-11-22T20:54:35.496Z,12.00
2022-11-22T20:56:41.255Z,12.10
2022-11-22T20:58:47.318Z,12.10
2022-11-22T21:01:15.735Z,12.00
2022-11-22T21:03:24.959Z,12.10
2022-11-22T21:05:34.777Z,12.10
2022-11-22T21:07:44.970Z,12.00
2022-11-22T21:09:54.198Z,12.10
2022-11-22T21:12:05.424Z,12.10
2022-11-22T21:14:14.485Z,12.10
2022-11-22T21:16:24.757Z,12.10
2022-11-22T21:18:30.950Z,12.00
2022-11-22T21:20:37.949Z,12.00
2022-11-22T21:22:40.127Z,12.00
2022-11-22T21:24:42.123Z,12.10
2022-11-22T21:26:44.214Z,12.00
2022-11-22T21:28:46.328Z,12.00
2022-11-22T21:30:52.093Z,12.00
2022-11-22T21:32:53.864Z,12.00
2022-11-22T21:34:55.565Z,12.00
2022-11-22T21:36:57.330Z,12.00
2022-11-22T21:38:59.171Z,12.00
2022-11-22T21:41:24.287Z,12.00
2022-11-22T21:43:23.867Z,12.00
2022-11-22T21:45:25.597Z,12.00
2022-11-22T21:47:27.571Z,12.00
2022-11-22T21:49:29.901Z,12.00
2022-11-22T21:51:32.198Z,12.00
2022-11-22T21:53:34.090Z,12.00
2022-11-22T21:55:36.162Z,12.00
2022-11-22T21:57:37.859Z,12.00
2022-11-22T21:59:39.548Z,12.00
2022-11-22T22:01:41.519Z,12.00
2022-11-22T22:03:43.256Z,12.00
2022-11-22T22:05:49.114Z,12.00
2022-11-22T22:07:53.197Z,12.00
2022-11-22T22:09:56.753Z,12.00
2022-11-22T22:11:59.206Z,12.00
2022-11-22T22:14:01.035Z,12.00
2022-11-22T22:16:06.508Z,12.00
2022-11-22T22:18:08.779Z,11.90
2022-11-22T22:20:10.826Z,11.90
2022-11-22T22:22:12.755Z,12.00
2022-11-22T22:24:14.991Z,12.00
2022-11-22T22:26:17.912Z,12.00
2022-11-22T22:28:19.777Z,12.00
2022-11-22T22:30:23.081Z,12.00
2022-11-22T22:32:25.553Z,12.00
2022-11-22T22:34:27.248Z,12.00
2022-11-22T22:36:28.929Z,12.00
2022-11-22T22:38:31.048Z,12.00
2022-11-22T22:40:32.821Z,12.00
2022-11-22T22:42:35.215Z,12.00
2022-11-22T22:44:37.024Z,12.00
2022-11-22T22:46:38.764Z,12.00
2022-11-22T22:48:40.888Z,12.10
2022-11-22T22:50:42.627Z,12.00
2022-11-22T22:52:44.329Z,12.10
2022-11-22T22:54:45.992Z,12.00
2022-11-22T22:56:47.872Z,12.00
2022-11-22T22:58:53.203Z,12.00
2022-11-22T23:00:54.940Z,12.00
2022-11-22T23:02:56.699Z,12.00
2022-11-22T23:04:58.514Z,12.10
2022-11-22T23:07:00.186Z,12.10
2022-11-22T23:09:02.554Z,12.10
2022-11-22T23:11:07.931Z,12.10
2022-11-22T23:13:09.808Z,12.10
2022-11-22T23:15:11.594Z,12.10
2022-11-22T23:17:13.299Z,12.10
2022-11-22T23:19:15.301Z,12.10
2022-11-22T23:21:16.983Z,12.10
2022-11-22T23:23:18.659Z,12.10
2022-11-22T23:25:20.363Z,12.10
2022-11-22T23:27:22.015Z,12.10
2022-11-22T23:29:23.795Z,12.00
2022-11-22T23:31:25.606Z,12.10
2022-11-22T23:33:29.441Z,12.10
2022-11-22T23:35:34.051Z,12.10
2022-11-22T23:37:35.694Z,12.10
2022-11-22T23:39:37.421Z,12.10
2022-11-22T23:41:39.115Z,12.10
2022-11-22T23:43:41.552Z,12.10
2022-11-22T23:45:46.485Z,12.10
2022-11-22T23:47:50.303Z,12.10
2022-11-22T23:49:51.975Z,12.10
2022-11-22T23:51:53.661Z,12.10
2022-11-22T23:53:56.148Z,12.10
2022-11-22T23:56:04.461Z,12.10
2022-11-22T23:58:06.106Z,12.10
